createdAt,value
2018-05-07T00:00:16.519Z,13.90
2018-05-07T00:02:43.324Z,13.80
2018-05-07T00:05:09.366Z,13.80
2018-05-07T00:07:35.381Z,13.70
2018-05-07T00:10:01.459Z,13.70
2018-05-07T00:12:27.520Z,13.60
2018-05-07T00:14:54.283Z,13.60
2018-05-07T00:17:20.326Z,13.60
2018-05-07T00:19:46.358Z,13.60
2018-05-07T00:22:12.382Z,13.50
2018-05-07T00:24:39.442Z,13.50
2018-05-07T00:27:05.486Z,13.50
2018-05-07T00:29:31.505Z,13.50
2018-05-07T00:31:58.275Z,13.40
2018-05-07T00:34:25.067Z,13.40
2018-05-07T00:36:51.143Z,13.40
2018-05-07T00:39:17.189Z,13.40
2018-05-07T00:41:43.977Z,13.30
2018-05-07T00:44:10.023Z,13.30
2018-05-07T00:46:36.099Z,13.30
2018-05-07T00:49:02.134Z,13.30
2018-05-07T00:51:28.182Z,13.20
2018-05-07T00:53:54.952Z,13.20
2018-05-07T00:56:21.729Z,13.20
2018-05-07T00:58:47.781Z,13.10
2018-05-07T01:01:13.855Z,13.10
2018-05-07T01:03:39.885Z,13.10
2018-05-07T01:06:05.963Z,13.00
2018-05-07T01:08:32.783Z,13.00
2018-05-07T01:10:58.844Z,13.00
2018-05-07T01:13:25.659Z,12.90
2018-05-07T01:15:51.731Z,12.80
2018-05-07T01:18:18.513Z,12.80
2018-05-07T01:20:44.576Z,12.70
2018-05-07T01:23:10.591Z,12.70
2018-05-07T01:25:36.613Z,12.70
2018-05-07T01:28:03.413Z,12.60
2018-05-07T01:30:29.484Z,12.60
2018-05-07T01:32:55.549Z,12.60
2018-05-07T01:35:21.569Z,12.60
2018-05-07T01:37:48.341Z,12.60
2018-05-07T01:40:14.412Z,12.60
2018-05-07T01:42:40.461Z,12.60
2018-05-07T01:45:08.022Z,12.50
2018-05-07T01:47:34.065Z,12.50
2018-05-07T01:50:00.097Z,12.40
2018-05-07T01:52:26.113Z,12.40
2018-05-07T01:54:52.176Z,12.40
2018-05-07T01:57:18.570Z,12.40
2018-05-07T01:59:45.348Z,12.30
2018-05-07T02:02:11.650Z,12.30
2018-05-07T02:04:38.535Z,12.30
2018-05-07T02:07:04.583Z,12.30
2018-05-07T02:09:30.601Z,12.30
2018-05-07T02:11:56.639Z,12.30
2018-05-07T02:14:23.411Z,12.30
2018-05-07T02:16:49.473Z,12.30
2018-05-07T02:19:15.476Z,12.30
2018-05-07T02:21:41.520Z,12.30
2018-05-07T02:24:07.813Z,12.30
2018-05-07T02:26:33.877Z,12.20
2018-05-07T02:29:00.655Z,12.10
2018-05-07T02:31:26.715Z,12.10
2018-05-07T02:33:52.723Z,12.10
2018-05-07T02:36:18.778Z,12.10
2018-05-07T02:38:44.852Z,12.10
2018-05-07T02:41:11.257Z,12.10
2018-05-07T02:43:37.308Z,12.10
2018-05-07T02:46:03.335Z,12.00
2018-05-07T02:48:29.374Z,12.00
2018-05-07T02:50:55.396Z,12.00
2018-05-07T02:53:21.433Z,12.00
2018-05-07T02:55:47.473Z,11.90
2018-05-07T02:58:13.816Z,12.00
2018-05-07T03:00:39.844Z,11.90
2018-05-07T03:03:05.873Z,11.90
2018-05-07T03:05:32.670Z,11.90
2018-05-07T03:07:58.757Z,11.90
2018-05-07T03:10:25.533Z,11.90
2018-05-07T03:12:51.578Z,11.90
2018-05-07T03:15:17.621Z,11.80
2018-05-07T03:17:43.691Z,11.80
2018-05-07T03:20:09.755Z,11.80
2018-05-07T03:22:36.526Z,11.70
2018-05-07T03:25:02.567Z,11.70
2018-05-07T03:27:28.603Z,11.70
2018-05-07T03:29:54.636Z,11.70
2018-05-07T03:32:21.411Z,11.70
2018-05-07T03:34:47.446Z,11.60
2018-05-07T03:37:13.510Z,11.60
2018-05-07T03:39:39.529Z,11.60
2018-05-07T03:42:05.550Z,11.60
2018-05-07T03:44:31.872Z,11.60
2018-05-07T03:46:58.645Z,11.50
2018-05-07T03:49:24.669Z,11.50
2018-05-07T03:51:51.480Z,11.60
2018-05-07T03:54:17.537Z,11.50
2018-05-07T03:56:44.376Z,11.60
2018-05-07T03:59:10.462Z,11.60
2018-05-07T04:01:36.523Z,11.60
2018-05-07T04:04:02.627Z,11.70
2018-05-07T04:06:29.470Z,11.70
2018-05-07T04:08:55.498Z,11.70
2018-05-07T04:11:21.532Z,11.70
2018-05-07T04:13:47.568Z,11.80
2018-05-07T04:16:25.945Z,11.80
2018-05-07T04:19:04.563Z,11.90
2018-05-07T04:21:30.581Z,11.90
2018-05-07T04:24:04.281Z,12.00
2018-05-07T04:26:30.331Z,12.00
2018-05-07T04:28:56.369Z,12.10
2018-05-07T04:31:22.422Z,12.10
2018-05-07T04:33:49.337Z,12.30
2018-05-07T04:36:15.397Z,12.30
2018-05-07T04:38:41.470Z,12.40
2018-05-07T04:41:07.556Z,12.40
2018-05-07T04:43:33.614Z,12.50
2018-05-07T04:45:59.643Z,12.50
2018-05-07T04:48:25.838Z,12.50
2018-05-07T04:50:51.891Z,12.60
2018-05-07T04:53:17.930Z,12.60
2018-05-07T04:55:44.280Z,12.70
2018-05-07T04:58:10.349Z,12.70
2018-05-07T05:00:36.421Z,12.70
2018-05-07T05:03:02.493Z,12.70
2018-05-07T05:05:28.528Z,12.70
2018-05-07T05:07:54.610Z,12.80
2018-05-07T05:10:20.647Z,12.90
2018-05-07T05:12:46.720Z,12.90
2018-05-07T05:15:12.768Z,13.00
2018-05-07T05:17:38.790Z,13.00
2018-05-07T05:20:04.826Z,13.10
2018-05-07T05:22:30.851Z,13.10
2018-05-07T05:24:56.889Z,13.20
2018-05-07T05:27:23.007Z,13.30
2018-05-07T05:29:49.271Z,13.30
2018-05-07T05:32:15.353Z,13.40
2018-05-07T05:34:41.399Z,13.40
2018-05-07T05:37:07.535Z,13.60
2018-05-07T05:39:34.000Z,13.60
2018-05-07T05:42:00.306Z,13.70
2018-05-07T05:44:26.348Z,13.70
2018-05-07T05:46:52.426Z,13.70
2018-05-07T05:49:18.442Z,13.80
2018-05-07T05:51:44.576Z,13.80
2018-05-07T05:54:10.643Z,13.90
2018-05-07T05:56:36.690Z,14.00
2018-05-07T05:59:02.737Z,14.00
2018-05-07T06:01:28.844Z,14.10
2018-05-07T06:03:55.216Z,14.20
2018-05-07T06:06:21.242Z,14.30
2018-05-07T06:08:48.158Z,14.50
2018-05-07T06:11:14.311Z,14.50
2018-05-07T06:13:40.368Z,14.50
2018-05-07T06:16:07.113Z,14.70
2018-05-07T06:18:33.907Z,14.70
2018-05-07T06:20:59.932Z,14.70
2018-05-07T06:23:25.953Z,14.80
2018-05-07T06:25:52.758Z,14.90
2018-05-07T06:28:18.892Z,14.90
2018-05-07T06:30:44.921Z,14.90
2018-05-07T06:33:10.967Z,15.10
2018-05-07T06:35:37.066Z,15.10
2018-05-07T06:38:03.141Z,15.10
2018-05-07T06:40:29.195Z,15.20
2018-05-07T06:42:55.331Z,15.30
2018-05-07T06:45:21.363Z,15.30
2018-05-07T06:47:47.541Z,15.50
2018-05-07T06:50:14.426Z,15.60
2018-05-07T06:52:40.488Z,15.60
2018-05-07T06:55:06.623Z,15.60
2018-05-07T06:57:32.600Z,15.70
2018-05-07T06:59:58.643Z,15.80
2018-05-07T07:02:24.720Z,15.80
2018-05-07T07:04:50.726Z,15.90
2018-05-07T07:07:17.513Z,16.10
2018-05-07T07:09:43.652Z,16.10
2018-05-07T07:12:09.667Z,16.20
2018-05-07T07:14:35.685Z,16.20
2018-05-07T07:17:02.463Z,16.40
2018-05-07T07:19:28.554Z,16.40
2018-05-07T07:21:54.663Z,16.50
2018-05-07T07:24:21.498Z,16.70
2018-05-07T07:26:47.548Z,16.70
2018-05-07T07:29:13.605Z,16.80
2018-05-07T07:31:39.654Z,16.80
2018-05-07T07:34:06.136Z,16.90
2018-05-07T07:36:32.150Z,17.00
2018-05-07T07:38:58.455Z,17.10
2018-05-07T07:41:24.510Z,17.10
2018-05-07T07:43:50.536Z,17.20
2018-05-07T07:46:16.641Z,17.40
2018-05-07T07:48:42.903Z,17.40
2018-05-07T07:51:08.920Z,17.60
2018-05-07T07:53:35.723Z,17.60
2018-05-07T07:56:01.763Z,17.60
2018-05-07T07:58:27.780Z,17.70
2018-05-07T08:00:53.937Z,17.80
2018-05-07T08:03:20.491Z,17.90
2018-05-07T08:05:46.549Z,18.00
2018-05-07T08:08:12.627Z,18.10
2018-05-07T08:10:38.747Z,18.10
2018-05-07T08:13:05.549Z,18.30
2018-05-07T08:15:31.616Z,18.30
2018-05-07T08:17:57.543Z,18.30
2018-05-07T08:20:23.605Z,18.50
2018-05-07T08:22:50.371Z,18.60
2018-05-07T08:25:16.449Z,18.60
2018-05-07T08:27:42.530Z,18.70
2018-05-07T08:30:09.333Z,18.80
2018-05-07T08:32:35.415Z,18.80
2018-05-07T08:35:01.476Z,18.80
2018-05-07T08:37:28.257Z,19.00
2018-05-07T08:39:54.304Z,19.00
2018-05-07T08:42:20.361Z,19.10
2018-05-07T08:44:46.384Z,19.20
2018-05-07T08:47:13.378Z,19.30
2018-05-07T08:49:39.413Z,19.30
2018-05-07T08:52:05.446Z,19.40
2018-05-07T08:54:31.518Z,19.40
2018-05-07T08:56:57.586Z,19.60
2018-05-07T08:59:23.665Z,19.70
2018-05-07T09:01:50.547Z,19.80
2018-05-07T09:04:17.303Z,19.90
2018-05-07T09:06:43.334Z,19.80
2018-05-07T09:09:09.393Z,19.90
2018-05-07T09:11:35.616Z,20.00
2018-05-07T09:14:01.690Z,20.10
2018-05-07T09:16:27.748Z,20.10
2018-05-07T09:18:53.789Z,20.20
2018-05-07T09:21:19.913Z,20.20
2018-05-07T09:23:45.992Z,20.30
2018-05-07T09:26:12.804Z,20.50
2018-05-07T09:28:38.827Z,20.50
2018-05-07T09:31:04.873Z,20.60
2018-05-07T09:33:30.913Z,20.60
2018-05-07T09:35:57.013Z,20.70
2018-05-07T09:38:23.047Z,20.80
2018-05-07T09:40:49.088Z,20.80
2018-05-07T09:43:15.209Z,20.80
2018-05-07T09:45:41.196Z,20.90
2018-05-07T09:48:07.255Z,21.10
2018-05-07T09:50:33.297Z,21.20
2018-05-07T09:52:59.389Z,21.20
2018-05-07T09:55:25.411Z,21.20
2018-05-07T09:58:00.757Z,21.30
2018-05-07T10:00:33.564Z,21.40
2018-05-07T10:02:59.631Z,21.30
2018-05-07T10:05:25.707Z,21.60
2018-05-07T10:07:51.729Z,21.60
2018-05-07T10:10:17.795Z,21.60
2018-05-07T10:12:44.624Z,21.70
2018-05-07T10:15:10.655Z,21.70
2018-05-07T10:17:36.674Z,21.80
2018-05-07T10:20:02.764Z,21.90
2018-05-07T10:22:28.848Z,21.90
2018-05-07T10:24:54.885Z,22.00
2018-05-07T10:27:20.916Z,22.10
2018-05-07T10:29:46.951Z,22.20
2018-05-07T10:32:12.980Z,22.30
2018-05-07T10:34:39.022Z,22.40
2018-05-07T10:37:05.126Z,22.50
2018-05-07T10:39:31.889Z,22.60
2018-05-07T10:41:57.902Z,22.50
2018-05-07T10:44:24.841Z,22.70
2018-05-07T10:46:50.933Z,22.70
2018-05-07T10:49:17.040Z,22.90
2018-05-07T10:51:43.003Z,23.00
2018-05-07T10:54:09.042Z,23.10
2018-05-07T10:56:35.063Z,23.20
2018-05-07T10:59:03.029Z,23.40
2018-05-07T11:01:29.853Z,23.40
2018-05-07T11:03:55.880Z,23.40
2018-05-07T11:06:21.897Z,23.40
2018-05-07T11:08:47.925Z,23.60
2018-05-07T11:11:13.973Z,24.10
2018-05-07T11:13:40.101Z,24.70
2018-05-07T11:16:06.078Z,25.50
2018-05-07T11:18:32.143Z,26.30
2018-05-07T11:20:58.163Z,27.00
2018-05-07T11:23:24.269Z,27.70
2018-05-07T11:25:50.467Z,28.50
2018-05-07T11:28:17.238Z,29.30
2018-05-07T11:30:43.299Z,29.20
2018-05-07T11:33:09.378Z,29.80
2018-05-07T11:35:35.415Z,30.10
2018-05-07T11:38:01.462Z,30.40
2018-05-07T11:40:28.282Z,31.20
2018-05-07T11:42:54.319Z,31.10
2018-05-07T11:45:20.349Z,31.60
2018-05-07T11:47:46.469Z,31.70
2018-05-07T11:50:13.260Z,31.90
2018-05-07T11:52:39.322Z,31.80
2018-05-07T11:55:06.128Z,32.90
2018-05-07T11:57:32.151Z,32.90
2018-05-07T11:59:58.233Z,33.10
2018-05-07T12:02:24.288Z,33.50
2018-05-07T12:04:50.347Z,33.70
2018-05-07T12:07:16.423Z,34.10
2018-05-07T12:09:43.355Z,34.50
2018-05-07T12:12:09.393Z,34.50
2018-05-07T12:14:35.475Z,34.40
2018-05-07T12:17:01.574Z,34.50
2018-05-07T12:19:27.610Z,34.70
2018-05-07T12:21:53.644Z,35.20
2018-05-07T12:24:19.707Z,35.60
2018-05-07T12:26:45.764Z,36.00
2018-05-07T12:29:11.820Z,36.80
2018-05-07T12:31:38.712Z,37.30
2018-05-07T12:34:04.653Z,37.30
2018-05-07T12:36:30.701Z,37.40
2018-05-07T12:38:56.745Z,36.80
2018-05-07T12:41:22.812Z,37.70
2018-05-07T12:43:49.097Z,37.30
2018-05-07T12:46:15.205Z,37.60
2018-05-07T12:48:42.010Z,38.40
2018-05-07T12:51:08.034Z,38.40
2018-05-07T12:53:34.096Z,38.50
2018-05-07T12:56:00.138Z,38.40
2018-05-07T12:58:26.173Z,38.90
2018-05-07T13:03:25.798Z,39.20
2018-05-07T13:05:51.912Z,39.80
2018-05-07T13:08:18.729Z,39.50
2018-05-07T13:10:44.795Z,39.50
2018-05-07T13:13:11.625Z,40.30
2018-05-07T13:15:37.686Z,40.20
2018-05-07T13:18:04.459Z,39.00
2018-05-07T13:20:30.520Z,39.00
2018-05-07T13:22:56.590Z,39.10
2018-05-07T13:25:22.633Z,39.80
2018-05-07T13:27:48.659Z,40.20
2018-05-07T13:30:14.782Z,41.00
2018-05-07T13:32:40.878Z,40.80
2018-05-07T13:35:06.933Z,41.10
2018-05-07T13:37:33.339Z,41.80
2018-05-07T13:40:00.189Z,41.30
2018-05-07T13:42:26.229Z,41.30
2018-05-07T13:44:53.458Z,40.70
2018-05-07T13:47:19.573Z,41.30
2018-05-07T13:49:45.605Z,41.50
2018-05-07T13:52:11.658Z,41.00
2018-05-07T13:54:37.756Z,41.20
2018-05-07T13:57:03.803Z,41.90
2018-05-07T13:59:30.602Z,41.70
2018-05-07T14:01:56.788Z,41.60
2018-05-07T14:04:22.812Z,41.40
2018-05-07T14:06:48.852Z,42.20
2018-05-07T14:09:15.685Z,42.60
2018-05-07T14:11:41.732Z,42.50
2018-05-07T14:14:07.750Z,42.50
2018-05-07T14:16:33.787Z,42.40
2018-05-07T14:18:59.925Z,42.20
2018-05-07T14:21:26.676Z,42.50
2018-05-07T14:23:52.983Z,42.50
2018-05-07T14:26:19.083Z,42.10
2018-05-07T14:28:45.055Z,42.70
2018-05-07T14:31:11.121Z,42.40
2018-05-07T14:33:37.154Z,42.50
2018-05-07T14:36:03.223Z,43.10
2018-05-07T14:38:29.322Z,43.40
2018-05-07T14:40:55.419Z,43.10
2018-05-07T14:43:22.193Z,42.30
2018-05-07T14:45:48.240Z,42.30
2018-05-07T14:48:14.290Z,42.90
2018-05-07T14:50:40.336Z,42.60
2018-05-07T14:53:06.382Z,43.30
2018-05-07T14:55:32.446Z,43.80
2018-05-07T14:57:58.502Z,43.70
2018-05-07T15:00:25.297Z,43.20
2018-05-07T15:02:51.363Z,43.30
2018-05-07T15:05:17.390Z,43.50
2018-05-07T15:07:43.462Z,44.00
2018-05-07T15:10:09.529Z,44.30
2018-05-07T15:12:35.565Z,44.80
2018-05-07T15:15:01.634Z,44.90
2018-05-07T15:17:27.654Z,45.80
2018-05-07T15:19:53.679Z,46.00
2018-05-07T15:22:19.727Z,45.70
2018-05-07T15:24:45.761Z,45.70
2018-05-07T15:27:11.839Z,45.40
2018-05-07T15:29:37.860Z,45.50
2018-05-07T15:32:03.911Z,45.10
2018-05-07T15:34:30.273Z,45.10
2018-05-07T15:36:57.074Z,44.30
2018-05-07T15:39:23.110Z,44.30
2018-05-07T15:41:49.162Z,43.60
2018-05-07T15:44:15.244Z,44.20
2018-05-07T15:46:41.277Z,44.80
2018-05-07T15:49:08.072Z,44.70
2018-05-07T15:51:34.143Z,44.60
2018-05-07T15:54:00.248Z,44.80
2018-05-07T15:56:26.292Z,43.50
2018-05-07T15:58:52.352Z,44.10
2018-05-07T16:01:18.408Z,44.30
2018-05-07T16:03:44.590Z,44.30
2018-05-07T16:06:11.449Z,43.90
2018-05-07T16:08:38.245Z,43.40
2018-05-07T16:11:04.314Z,43.40
2018-05-07T16:13:31.098Z,43.00
2018-05-07T16:15:57.125Z,43.00
2018-05-07T16:18:23.146Z,42.60
2018-05-07T16:20:50.016Z,42.70
2018-05-07T16:23:16.325Z,42.60
2018-05-07T16:25:42.189Z,42.20
2018-05-07T16:28:08.909Z,41.90
2018-05-07T16:30:34.979Z,41.80
2018-05-07T16:33:01.028Z,41.80
2018-05-07T16:35:27.079Z,41.80
2018-05-07T16:37:53.130Z,41.70
2018-05-07T16:40:19.333Z,41.70
2018-05-07T16:42:45.458Z,41.40
2018-05-07T16:45:12.354Z,40.80
2018-05-07T16:47:38.421Z,40.80
2018-05-07T16:50:04.492Z,41.40
2018-05-07T16:52:31.314Z,41.10
2018-05-07T16:54:57.327Z,41.10
2018-05-07T16:57:23.342Z,41.40
2018-05-07T16:59:49.406Z,41.00
2018-05-07T17:02:16.204Z,40.40
2018-05-07T17:04:42.241Z,40.30
2018-05-07T17:07:15.977Z,40.00
2018-05-07T17:09:42.059Z,39.90
2018-05-07T17:12:08.131Z,39.90
2018-05-07T17:14:34.279Z,39.10
2018-05-07T17:17:01.028Z,36.00
2018-05-07T17:19:27.831Z,34.80
2018-05-07T17:21:53.878Z,34.70
2018-05-07T17:24:19.967Z,33.30
2018-05-07T17:26:45.959Z,32.40
2018-05-07T17:29:12.081Z,31.30
2018-05-07T17:31:38.111Z,30.20
2018-05-07T17:34:04.303Z,29.60
2018-05-07T17:36:30.185Z,28.80
2018-05-07T17:38:56.184Z,28.20
2018-05-07T17:41:22.972Z,27.30
2018-05-07T17:43:49.070Z,27.20
2018-05-07T17:46:28.132Z,26.60
2018-05-07T17:48:56.058Z,26.60
2018-05-07T17:51:22.116Z,26.40
2018-05-07T17:53:48.143Z,26.20
2018-05-07T17:56:14.210Z,26.00
2018-05-07T17:58:41.009Z,25.50
2018-05-07T18:01:07.072Z,25.50
2018-05-07T18:03:40.127Z,25.30
2018-05-07T18:06:06.146Z,25.00
2018-05-07T18:08:32.947Z,24.60
2018-05-07T18:10:58.992Z,24.60
2018-05-07T18:13:25.048Z,24.40
2018-05-07T18:15:51.250Z,24.20
2018-05-07T18:18:17.873Z,23.90
2018-05-07T18:20:44.690Z,23.70
2018-05-07T18:23:11.109Z,23.70
2018-05-07T18:25:37.013Z,23.60
2018-05-07T18:28:03.057Z,23.40
2018-05-07T18:30:29.127Z,23.30
2018-05-07T18:32:55.242Z,23.10
2018-05-07T18:35:21.314Z,23.00
2018-05-07T18:37:47.400Z,22.80
2018-05-07T18:40:14.182Z,22.40
2018-05-07T18:42:40.257Z,22.40
2018-05-07T18:45:06.308Z,22.20
2018-05-07T18:47:32.423Z,22.00
2018-05-07T18:49:58.466Z,21.90
2018-05-07T18:52:24.552Z,21.70
2018-05-07T18:54:50.571Z,21.60
2018-05-07T18:57:17.373Z,21.30
2018-05-07T18:59:48.353Z,21.30
2018-05-07T19:02:14.415Z,21.20
2018-05-07T19:04:40.499Z,21.00
2018-05-07T19:07:06.529Z,20.90
2018-05-07T19:09:33.461Z,20.60
2018-05-07T19:12:00.257Z,20.50
2018-05-07T19:14:26.311Z,20.50
2018-05-07T19:16:52.360Z,20.40
2018-05-07T19:19:18.387Z,20.30
2018-05-07T19:21:44.437Z,20.10
2018-05-07T19:24:10.517Z,20.00
2018-05-07T19:26:36.554Z,19.90
2018-05-07T19:29:02.609Z,19.80
2018-05-07T19:31:28.730Z,19.70
2018-05-07T19:33:54.886Z,19.60
2018-05-07T19:36:20.910Z,19.50
2018-05-07T19:38:46.961Z,19.40
2018-05-07T19:41:13.002Z,19.30
2018-05-07T19:43:39.054Z,19.20
2018-05-07T19:46:05.135Z,19.20
2018-05-07T19:48:31.236Z,19.10
2018-05-07T19:50:57.324Z,19.00
2018-05-07T19:53:24.120Z,18.90
2018-05-07T19:55:50.218Z,18.90
2018-05-07T19:58:16.210Z,18.80
2018-05-07T20:00:42.290Z,18.80
2018-05-07T20:03:09.067Z,18.60
2018-05-07T20:05:35.152Z,18.60
2018-05-07T20:08:01.197Z,18.50
2018-05-07T20:10:27.278Z,18.50
2018-05-07T20:12:53.366Z,18.40
2018-05-07T20:15:19.419Z,18.40
2018-05-07T20:17:45.494Z,18.40
2018-05-07T20:20:11.534Z,18.40
2018-05-07T20:22:37.591Z,18.30
2018-05-07T20:25:03.674Z,18.20
2018-05-07T20:27:29.753Z,18.10
2018-05-07T20:29:55.812Z,18.10
2018-05-07T20:32:21.918Z,18.10
2018-05-07T20:34:47.967Z,18.00
2018-05-07T20:37:13.985Z,18.00
2018-05-07T20:39:41.222Z,17.90
2018-05-07T20:42:07.266Z,17.80
2018-05-07T20:44:33.315Z,17.80
2018-05-07T20:47:00.384Z,17.80
2018-05-07T20:49:26.422Z,17.80
2018-05-07T20:51:53.301Z,17.70
2018-05-07T20:54:19.350Z,17.70
2018-05-07T20:56:45.438Z,17.60
2018-05-07T20:59:11.475Z,17.50
2018-05-07T21:01:38.294Z,17.40
2018-05-07T21:04:04.733Z,17.40
2018-05-07T21:06:30.799Z,17.30
2018-05-07T21:08:56.881Z,17.30
2018-05-07T21:11:23.924Z,17.20
2018-05-07T21:13:50.731Z,17.10
2018-05-07T21:16:17.863Z,17.10
2018-05-07T21:18:43.931Z,17.10
2018-05-07T21:21:10.025Z,17.00
2018-05-07T21:23:36.806Z,16.90
2018-05-07T21:26:02.841Z,16.80
2018-05-07T21:28:28.912Z,16.80
2018-05-07T21:30:55.086Z,16.80
2018-05-07T21:33:21.869Z,16.70
2018-05-07T21:35:47.889Z,16.70
2018-05-07T21:38:13.975Z,16.70
2018-05-07T21:40:40.047Z,16.70
2018-05-07T21:43:06.842Z,16.80
2018-05-07T21:45:32.892Z,16.70
2018-05-07T21:47:58.983Z,16.70
2018-05-07T21:50:25.091Z,16.70
2018-05-07T21:52:51.124Z,16.80
2018-05-07T21:55:17.157Z,16.80
2018-05-07T21:57:43.181Z,16.80
2018-05-07T22:00:09.214Z,16.80
2018-05-07T22:02:35.295Z,16.80
2018-05-07T22:05:02.115Z,16.80
2018-05-07T22:07:28.311Z,16.80
2018-05-07T22:09:54.383Z,16.80
2018-05-07T22:12:20.471Z,16.70
2018-05-07T22:14:47.290Z,16.70
2018-05-07T22:17:14.053Z,16.70
2018-05-07T22:19:40.121Z,16.70
2018-05-07T22:22:06.943Z,16.60
2018-05-07T22:24:33.005Z,16.60
2018-05-07T22:26:59.071Z,16.60
2018-05-07T22:29:26.516Z,16.60
2018-05-07T22:31:53.322Z,16.60
2018-05-07T22:34:19.373Z,16.60
2018-05-07T22:36:45.435Z,16.60
2018-05-07T22:39:11.588Z,16.60
2018-05-07T22:41:37.570Z,16.60
2018-05-07T22:44:03.892Z,16.60
2018-05-07T22:46:29.922Z,16.60
2018-05-07T22:48:55.992Z,16.70
2018-05-07T22:51:22.023Z,16.60
2018-05-07T22:53:48.230Z,16.60
2018-05-07T22:56:15.001Z,16.60
2018-05-07T22:58:41.035Z,16.60
2018-05-07T23:01:07.101Z,16.50
2018-05-07T23:03:33.125Z,16.50
2018-05-07T23:05:59.159Z,16.40
2018-05-07T23:08:25.212Z,16.40
2018-05-07T23:10:51.250Z,16.30
2018-05-07T23:13:17.334Z,16.30
2018-05-07T23:15:44.141Z,16.20
2018-05-07T23:18:10.194Z,16.20
2018-05-07T23:20:36.300Z,16.10
2018-05-07T23:23:02.362Z,16.10
2018-05-07T23:25:28.418Z,16.10
2018-05-07T23:27:54.468Z,16.00
2018-05-07T23:30:21.291Z,15.90
2018-05-07T23:32:47.339Z,15.90
2018-05-07T23:35:13.384Z,15.90
2018-05-07T23:37:39.442Z,15.90
2018-05-07T23:40:06.245Z,15.80
2018-05-07T23:42:32.314Z,15.80
2018-05-07T23:44:58.341Z,15.80
2018-05-07T23:47:24.410Z,15.80
2018-05-07T23:49:51.346Z,15.70
2018-05-07T23:52:17.415Z,15.70
2018-05-07T23:54:44.169Z,15.60
2018-05-07T23:57:10.208Z,15.60
2018-05-07T23:59:36.530Z,15.60
